Time;durP1;ratioP1;P1;durP2;ratioP2;P2;SDS_P1;SDS_P2;PMS_P1;PMS_P2;Temp;Humidity;BMP_temperature;BMP_pressure;BME280_temperature;BME280_humidity;BME280_pressure;Samples;Min_cycle;Max_cycle;Signal;HPM_P1;HPM_P2
2022/11/05 00:19:05;;;;;;;12.80;8.40;;;21.20;74.70;;;;;;215545;1285;24258;-61
2022/11/05 00:29:32;;;;;;;12.50;7.60;;;21.10;74.60;;;;;;215472;1282;25546;-62
2022/11/05 00:34:35;;;;;;;14.20;7.80;;;21.10;74.60;;;;;;215250;1300;22510;-61
2022/11/05 00:39:40;;;;;;;18.80;8.50;;;21.20;75.70;;;;;;215176;1276;25292;-62
2022/11/05 00:45:02;;;;;;;13.40;8.20;;;21.20;75.00;;;;;;215373;1276;22575;-65
2022/11/05 00:50:09;;;;;;;12.10;7.80;;;21.20;74.80;;;;;;215527;1281;24456;-62
2022/11/05 00:55:13;;;;;;;11.10;7.10;;;21.20;74.90;;;;;;215502;1282;22705;-61
2022/11/05 01:00:17;;;;;;;14.40;8.10;;;21.20;75.00;;;;;;215547;1300;25429;-64
2022/11/05 01:05:21;;;;;;;11.50;7.40;;;21.10;74.50;;;;;;215525;1299;25426;-63
2022/11/05 01:10:26;;;;;;;12.10;7.50;;;21.10;74.30;;;;;;215503;1300;25356;-63
2022/11/05 01:15:30;;;;;;;12.80;8.20;;;21.10;74.20;;;;;;215192;1294;25281;-62
2022/11/05 01:20:33;;;;;;;10.50;7.30;;;21.10;74.20;;;;;;215270;1289;24304;-64
2022/11/05 01:25:37;;;;;;;10.30;7.20;;;21.10;74.30;;;;;;215190;1300;26456;-62
2022/11/05 01:30:42;;;;;;;12.30;7.20;;;21.10;74.20;;;;;;215462;1297;25323;-61
2022/11/05 01:35:45;;;;;;;10.90;7.30;;;21.10;74.20;;;;;;215428;1293;24208;-63
2022/11/05 01:40:49;;;;;;;9.40;6.50;;;21.00;74.10;;;;;;215146;1300;25443;-62
2022/11/05 01:45:57;;;;;;;8.20;6.20;;;21.10;74.10;;;;;;217930;1277;26579;-62
2022/11/05 01:51:07;;;;;;;9.80;6.80;;;21.00;73.80;;;;;;215353;1291;22703;-62
2022/11/05 01:56:20;;;;;;;9.70;6.70;;;21.00;73.80;;;;;;215455;1292;25518;-62
2022/11/05 02:01:24;;;;;;;9.40;7.00;;;21.00;73.60;;;;;;215767;1279;25525;-63
2022/11/05 02:06:31;;;;;;;10.00;7.20;;;21.00;73.60;;;;;;215361;1294;23841;-62
2022/11/05 02:11:35;;;;;;;8.30;5.90;;;21.00;73.70;;;;;;215567;1292;24266;-62
2022/11/05 02:17:01;;;;;;;10.00;6.60;;;21.00;73.70;;;;;;215407;1294;25360;-63
2022/11/05 02:22:38;;;;;;;10.70;6.40;;;21.00;73.80;;;;;;215401;1275;25363;-62
2022/11/05 02:28:02;;;;;;;8.60;6.40;;;21.00;73.80;;;;;;215498;1283;26458;-63
2022/11/05 02:33:43;;;;;;;15.50;7.30;;;21.00;73.80;;;;;;215390;1281;24286;-69
2022/11/05 02:39:36;;;;;;;9.60;7.10;;;20.90;73.80;;;;;;215363;1283;24218;-62
2022/11/05 02:44:39;;;;;;;;;;;20.90;73.60;;;;;;215398;1299;24151;-61
2022/11/05 02:49:46;;;;;;;7.90;5.90;;;20.90;73.60;;;;;;215535;1283;22533;-62
2022/11/05 02:55:04;;;;;;;10.30;6.40;;;20.90;73.70;;;;;;215423;1299;22882;-62
2022/11/05 03:00:39;;;;;;;8.90;6.20;;;20.90;73.70;;;;;;215383;1285;23842;-63
2022/11/05 03:06:20;;;;;;;7.60;5.60;;;20.90;73.60;;;;;;215398;1290;23054;-62
2022/11/05 03:11:27;;;;;;;9.00;5.90;;;21.00;74.00;;;;;;215572;1291;25423;-62
2022/11/05 03:16:51;;;;;;;8.10;5.90;;;21.30;72.90;;;;;;215497;1281;22469;-62
2022/11/05 03:22:02;;;;;;;9.50;6.40;;;21.50;72.60;;;;;;215546;1282;25661;-62
2022/11/05 03:27:13;;;;;;;7.40;5.10;;;21.70;71.70;;;;;;215572;1281;23852;-61
2022/11/05 03:32:19;;;;;;;9.40;5.70;;;21.80;71.40;;;;;;215481;1299;26462;-61
2022/11/05 03:37:26;;;;;;;6.60;5.20;;;21.90;71.30;;;;;;215503;1285;23069;-62
2022/11/05 03:42:34;;;;;;;7.60;5.40;;;22.00;71.10;;;;;;215491;1281;24279;-62
2022/11/05 03:47:40;;;;;;;7.10;5.30;;;22.00;70.90;;;;;;215544;1278;24295;-63
2022/11/05 03:53:10;;;;;;;7.00;5.30;;;22.10;71.00;;;;;;215513;1295;22536;-63
2022/11/05 03:58:15;;;;;;;9.50;5.80;;;22.20;70.70;;;;;;215562;1297;26490;-63
2022/11/05 04:03:19;;;;;;;8.00;4.90;;;22.20;70.70;;;;;;215521;1281;22713;-62
2022/11/05 04:13:45;;;;;;;6.30;4.50;;;22.10;70.90;;;;;;215523;1292;25410;-62
2022/11/05 04:18:49;;;;;;;6.40;5.00;;;22.10;71.10;;;;;;215470;1300;26521;-62
2022/11/05 04:24:08;;;;;;;6.50;4.60;;;22.00;70.80;;;;;;215519;1283;26474;-63
2022/11/05 04:34:35;;;;;;;6.50;4.90;;;22.10;70.60;;;;;;215474;1277;22456;-63
2022/11/05 04:39:39;;;;;;;7.80;4.80;;;22.00;70.70;;;;;;215531;1286;25295;-63
2022/11/05 04:44:43;;;;;;;5.00;4.40;;;22.10;70.50;;;;;;215432;1292;26465;-62
2022/11/05 04:49:46;;;;;;;4.80;4.00;;;22.20;70.40;;;;;;215157;1292;25022;-62
2022/11/05 04:54:56;;;;;;;6.20;4.60;;;22.20;70.20;;;;;;215185;1301;25447;-62
2022/11/05 04:59:59;;;;;;;6.80;4.90;;;22.30;70.00;;;;;;215552;1299;25428;-61
2022/11/05 05:05:04;;;;;;;5.10;4.00;;;22.30;69.90;;;;;;215518;1293;25286;-62
2022/11/05 05:10:10;;;;;;;6.00;4.10;;;22.30;69.80;;;;;;215214;1296;22767;-63
2022/11/05 05:15:14;;;;;;;5.80;4.10;;;22.40;69.80;;;;;;215561;1293;22459;-62
2022/11/05 05:25:41;;;;;;;5.60;4.30;;;22.30;70.10;;;;;;215450;1300;23929;-63
2022/11/05 05:30:45;;;;;;;5.30;4.00;;;22.30;70.10;;;;;;215489;1293;25304;-63
2022/11/05 05:35:48;;;;;;;5.60;4.30;;;22.30;70.10;;;;;;215487;1293;22455;-63
2022/11/05 05:40:57;;;;;;;5.80;3.60;;;22.20;70.10;;;;;;215511;1283;24207;-61
2022/11/05 05:46:06;;;;;;;5.70;4.40;;;22.20;70.10;;;;;;215516;1286;24253;-62
2022/11/05 05:51:10;;;;;;;5.20;3.80;;;22.10;70.10;;;;;;215471;1286;25326;-61
2022/11/05 05:56:18;;;;;;;5.00;3.60;;;22.10;70.10;;;;;;215478;1279;24123;-61
2022/11/05 06:01:22;;;;;;;4.90;3.60;;;22.10;70.10;;;;;;215310;1288;25549;-62
2022/11/05 06:06:27;;;;;;;4.90;4.00;;;22.10;70.10;;;;;;215411;1285;25537;-62
2022/11/05 06:11:31;;;;;;;6.10;4.00;;;22.00;70.00;;;;;;215306;1291;600908;-62
2022/11/05 06:16:34;;;;;;;6.60;3.80;;;22.00;70.10;;;;;;215571;1293;25383;-62
2022/11/05 06:21:38;;;;;;;6.80;3.80;;;21.90;70.30;;;;;;215515;1291;22452;-62
2022/11/05 06:26:43;;;;;;;5.10;3.80;;;21.90;70.30;;;;;;215515;1287;22463;-63
2022/11/05 06:31:48;;;;;;;5.20;3.50;;;21.80;70.60;;;;;;215489;1284;24461;-63
2022/11/05 06:36:52;;;;;;;5.10;3.60;;;21.80;70.90;;;;;;215573;1297;25204;-62
2022/11/05 06:41:56;;;;;;;6.70;3.70;;;21.70;70.80;;;;;;215544;1292;25328;-62
2022/11/05 06:47:20;;;;;;;7.70;3.70;;;21.70;70.80;;;;;;215481;1292;22443;-63
2022/11/05 06:52:25;;;;;;;4.80;3.70;;;21.70;71.00;;;;;;215557;1288;24189;-62
2022/11/05 06:57:29;;;;;;;4.90;3.70;;;21.70;71.00;;;;;;215364;1296;23825;-63
2022/11/05 07:02:33;;;;;;;5.80;3.80;;;21.60;70.90;;;;;;215534;1297;24209;-64
2022/11/05 07:07:38;;;;;;;4.50;3.30;;;21.60;71.00;;;;;;215486;1301;25341;-62
2022/11/05 07:12:44;;;;;;;5.00;3.70;;;21.60;71.00;;;;;;215158;1288;22622;-62
2022/11/05 07:17:48;;;;;;;4.50;3.60;;;21.60;71.20;;;;;;215456;1298;25318;-62
2022/11/05 07:23:04;;;;;;;4.50;3.30;;;21.60;71.10;;;;;;215191;1297;23729;-63
2022/11/05 07:28:08;;;;;;;4.30;3.00;;;21.50;71.20;;;;;;215537;1286;24258;-62
2022/11/05 07:33:13;;;;;;;4.20;3.20;;;21.50;71.20;;;;;;215516;1285;22694;-62
2022/11/05 07:38:20;;;;;;;5.00;3.70;;;21.50;71.70;;;;;;215178;1289;26552;-62
2022/11/05 07:43:29;;;;;;;4.40;3.40;;;21.50;71.30;;;;;;215201;1298;22588;-64
2022/11/05 07:48:34;;;;;;;5.00;3.40;;;21.50;71.30;;;;;;215531;1288;24243;-64
2022/11/05 07:53:40;;;;;;;4.50;3.20;;;21.50;71.30;;;;;;215497;1299;24247;-62
2022/11/05 07:58:48;;;;;;;4.90;3.30;;;21.40;71.40;;;;;;215604;1288;24258;-61
2022/11/05 08:03:52;;;;;;;5.90;3.10;;;21.40;71.50;;;;;;215572;1288;23831;-63
2022/11/05 08:08:56;;;;;;;5.30;3.60;;;21.30;71.80;;;;;;215580;1278;22459;-63
2022/11/05 08:14:00;;;;;;;5.90;3.40;;;21.30;72.50;;;;;;215498;1288;24429;-62
2022/11/05 08:19:05;;;;;;;5.70;3.50;;;21.20;72.10;;;;;;215531;1289;26581;-63
2022/11/05 08:24:21;;;;;;;6.10;3.00;;;21.20;72.30;;;;;;215307;1296;25366;-63
2022/11/05 08:29:31;;;;;;;8.80;2.90;;;21.20;72.10;;;;;;215381;1291;25289;-60
2022/11/05 08:34:40;;;;;;;7.90;3.00;;;21.20;71.70;;;;;;215432;1279;22705;-59
2022/11/05 08:40:03;;;;;;;5.50;2.90;;;21.20;71.80;;;;;;215366;1275;24259;-59
2022/11/05 08:45:10;;;;;;;6.20;2.90;;;21.30;71.60;;;;;;215429;1282;25383;-58
2022/11/05 08:50:15;;;;;;;6.30;3.20;;;21.20;71.70;;;;;;215329;1281;23194;-58
2022/11/05 08:55:21;;;;;;;3.40;2.50;;;21.30;71.60;;;;;;215248;1282;24247;-59
2022/11/05 09:00:33;;;;;;;8.90;3.30;;;21.20;71.80;;;;;;214915;1282;25204;-58
2022/11/05 09:05:43;;;;;;;9.70;2.70;;;21.20;71.80;;;;;;214935;1275;25386;-58
2022/11/05 09:10:57;;;;;;;4.00;2.80;;;21.20;72.30;;;;;;215085;1275;25450;-58
2022/11/05 09:16:06;;;;;;;4.90;3.10;;;21.20;72.20;;;;;;215130;1280;22454;-59
2022/11/05 09:21:11;;;;;;;5.20;2.80;;;21.10;72.60;;;;;;215085;1288;25189;-58
2022/11/05 09:26:23;;;;;;;11.80;2.80;;;21.20;72.30;;;;;;215141;1283;25366;-59
2022/11/05 09:31:33;;;;;;;4.80;2.70;;;21.20;72.20;;;;;;215050;1281;24364;-60
2022/11/05 09:36:38;;;;;;;7.50;2.80;;;21.20;72.20;;;;;;215484;1282;22464;-59
2022/11/05 09:41:44;;;;;;;8.00;3.20;;;21.20;72.30;;;;;;215193;1279;24400;-59
2022/11/05 09:47:00;;;;;;;5.00;2.70;;;21.10;73.30;;;;;;215555;1285;25634;-58
2022/11/05 09:52:30;;;;;;;6.10;2.50;;;21.20;73.40;;;;;;215168;1277;23987;-59
2022/11/05 09:57:59;;;;;;;6.90;2.80;;;21.10;73.10;;;;;;215162;1283;23828;-59
2022/11/05 10:03:10;;;;;;;6.70;2.50;;;21.10;72.90;;;;;;214989;1282;22478;-59
2022/11/05 10:08:28;;;;;;;6.00;2.80;;;21.20;72.70;;;;;;215437;1276;25319;-58
2022/11/05 10:13:56;;;;;;;6.00;2.20;;;21.20;72.90;;;;;;215503;1281;23612;-58
2022/11/05 10:19:42;;;;;;;4.40;2.40;;;21.10;73.40;;;;;;215125;1283;25366;-59
2022/11/05 10:24:53;;;;;;;5.80;2.90;;;21.10;73.40;;;;;;215285;1283;22461;-59
2022/11/05 10:30:15;;;;;;;;;;;21.10;73.10;;;;;;215503;1299;24174;-59
2022/11/05 10:35:22;;;;;;;5.70;2.50;;;21.20;73.20;;;;;;215472;1283;22446;-59
2022/11/05 10:40:37;;;;;;;7.00;2.50;;;21.10;73.10;;;;;;215409;1299;25838;-58
2022/11/05 10:45:43;;;;;;;4.80;2.10;;;21.10;72.90;;;;;;215487;1297;25390;-58
2022/11/05 10:50:47;;;;;;;6.30;2.20;;;21.10;72.70;;;;;;215291;1279;25314;-59
2022/11/05 10:56:02;;;;;;;4.30;2.00;;;21.10;72.40;;;;;;215375;1276;22527;-58
2022/11/05 11:01:11;;;;;;;7.70;2.50;;;21.10;72.20;;;;;;215470;1275;22478;-58
2022/11/05 11:06:25;;;;;;;7.70;2.30;;;21.10;72.20;;;;;;215339;1269;25301;-59
2022/11/05 11:11:35;;;;;;;5.90;2.10;;;21.10;72.20;;;;;;215404;1277;22447;-59
2022/11/05 11:16:49;;;;;;;5.40;2.10;;;21.10;72.00;;;;;;215507;1275;23279;-59
2022/11/05 11:22:15;;;;;;;7.30;2.60;;;21.10;71.40;;;;;;215286;1283;25864;-59
2022/11/05 11:27:29;;;;;;;4.80;2.10;;;21.10;71.40;;;;;;215216;1275;22481;-57
2022/11/05 11:32:38;;;;;;;8.00;2.00;;;21.20;71.10;;;;;;215503;1275;25363;-58
2022/11/05 11:37:44;;;;;;;8.60;2.30;;;21.20;70.80;;;;;;215284;1297;24066;-58
2022/11/05 11:43:01;;;;;;;9.40;2.50;;;21.10;70.80;;;;;;215498;1285;24278;-58
2022/11/05 11:48:07;;;;;;;8.80;2.30;;;21.10;70.80;;;;;;215499;1294;25304;-59
2022/11/05 11:53:24;;;;;;;11.90;2.80;;;21.10;70.70;;;;;;215553;1276;22606;-59
2022/11/05 11:58:53;;;;;;;8.30;2.10;;;21.10;70.70;;;;;;215382;1276;22450;-59
2022/11/05 12:04:26;;;;;;;13.90;2.70;;;21.10;71.30;;;;;;215264;1277;22463;-59
2022/11/05 12:09:37;;;;;;;7.90;2.40;;;21.10;71.40;;;;;;215424;1274;22458;-57
2022/11/05 12:14:56;;;;;;;7.60;2.20;;;21.10;71.90;;;;;;215372;1276;24055;-58
2022/11/05 12:20:31;;;;;;;9.20;2.00;;;21.00;71.60;;;;;;215338;1277;25300;-58
2022/11/05 12:25:49;;;;;;;8.10;1.80;;;21.00;71.90;;;;;;215387;1283;22475;-58
2022/11/05 12:31:18;;;;;;;6.70;2.10;;;21.10;71.80;;;;;;215420;1292;26503;-59
2022/11/05 12:36:30;;;;;;;4.80;2.20;;;21.10;71.50;;;;;;215350;1283;25403;-56
2022/11/05 12:41:51;;;;;;;9.70;2.10;;;21.20;71.10;;;;;;215280;1269;24309;-58
2022/11/05 12:47:13;;;;;;;7.90;2.00;;;21.30;71.00;;;;;;215399;1275;24278;-57
2022/11/05 12:52:27;;;;;;;5.80;1.70;;;21.10;71.00;;;;;;215348;1275;24256;-58
2022/11/05 12:57:35;;;;;;;6.10;2.20;;;21.20;71.00;;;;;;215530;1282;22696;-58
2022/11/05 13:02:58;;;;;;;9.60;2.30;;;21.20;71.50;;;;;;215444;1281;22530;-58
2022/11/05 13:08:13;;;;;;;4.00;1.70;;;21.10;71.20;;;;;;215345;1276;23853;-57
2022/11/05 13:13:26;;;;;;;6.40;2.00;;;21.20;71.10;;;;;;215475;1276;23954;-59
2022/11/05 13:18:53;;;;;;;6.00;2.10;;;21.20;71.20;;;;;;215602;1276;23874;-58
2022/11/05 13:24:10;;;;;;;5.50;1.70;;;21.20;70.90;;;;;;215459;1276;24269;-61
2022/11/05 13:29:54;;;;;;;7.10;2.40;;;21.30;70.90;;;;;;215400;1283;25303;-59
2022/11/05 13:35:03;;;;;;;6.00;2.10;;;21.20;71.00;;;;;;215544;1276;22975;-58
2022/11/05 13:40:14;;;;;;;2.90;1.40;;;21.20;71.00;;;;;;215402;1269;23684;-59
2022/11/05 13:45:47;;;;;;;10.70;2.30;;;21.20;71.00;;;;;;215414;1276;22485;-58
2022/11/05 13:51:38;;;;;;;5.70;2.10;;;21.20;71.00;;;;;;215419;1282;22480;-58
2022/11/05 13:57:08;;;;;;;3.60;2.00;;;21.20;71.30;;;;;;215474;1269;23196;-58
2022/11/05 14:02:15;;;;;;;6.90;1.90;;;21.20;70.90;;;;;;215481;1276;25389;-61
2022/11/05 14:07:36;;;;;;;8.60;1.90;;;21.20;70.70;;;;;;215498;1269;22493;-58
2022/11/05 14:12:49;;;;;;;7.60;1.80;;;21.20;70.70;;;;;;215321;1276;22459;-59
2022/11/05 14:18:03;;;;;;;8.40;2.10;;;21.20;71.20;;;;;;215504;1292;25212;-61
2022/11/05 14:23:19;;;;;;;8.80;2.30;;;21.30;70.60;;;;;;215268;1276;26516;-57
2022/11/05 14:28:50;;;;;;;7.90;2.00;;;21.40;70.70;;;;;;215524;1279;22469;-53
2022/11/05 14:34:00;;;;;;;4.70;2.00;;;21.30;70.70;;;;;;215367;1285;22761;-58
2022/11/05 14:39:22;;;;;;;6.30;2.20;;;21.40;70.90;;;;;;215492;1276;22486;-59
2022/11/05 14:44:28;;;;;;;5.60;2.10;;;21.40;70.60;;;;;;215449;1276;25549;-58
2022/11/05 14:49:39;;;;;;;6.60;2.60;;;21.30;70.20;;;;;;215308;1272;24312;-58
2022/11/05 14:54:47;;;;;;;12.80;2.40;;;21.30;70.20;;;;;;215537;1281;24225;-56
2022/11/05 14:59:57;;;;;;;13.80;2.60;;;21.30;70.20;;;;;;215533;1275;24244;-57
2022/11/05 15:05:32;;;;;;;12.30;2.80;;;21.30;70.20;;;;;;215517;1283;23890;-57
2022/11/05 15:10:36;;;;;;;9.10;2.20;;;21.20;70.00;;;;;;215570;1278;22487;-58
2022/11/05 15:15:49;;;;;;;9.30;2.20;;;21.20;70.60;;;;;;215549;1269;22527;-58
2022/11/05 15:20:59;;;;;;;5.90;2.10;;;21.20;70.20;;;;;;215464;1276;22596;-60
2022/11/05 15:26:21;;;;;;;6.30;1.80;;;21.20;70.20;;;;;;215590;1276;23883;-57
2022/11/05 15:31:40;;;;;;;12.20;2.60;;;21.10;70.20;;;;;;215380;1276;25319;-56
2022/11/05 15:36:53;;;;;;;9.80;2.20;;;21.20;70.40;;;;;;215509;1282;22554;-56
2022/11/05 15:42:03;;;;;;;10.60;2.00;;;21.20;70.30;;;;;;215478;1282;22465;-57
2022/11/05 15:47:17;;;;;;;16.20;2.20;;;21.20;71.30;;;;;;215410;1286;22465;-56
2022/11/05 15:52:35;;;;;;;11.70;2.40;;;21.10;71.00;;;;;;215500;1268;26524;-57
2022/11/05 15:57:54;;;;;;;6.30;2.00;;;21.10;71.00;;;;;;215098;1295;24316;-56
2022/11/05 16:03:03;;;;;;;6.90;2.70;;;21.10;71.10;;;;;;215103;1278;25449;-56
2022/11/05 16:08:17;;;;;;;12.00;2.70;;;21.10;70.90;;;;;;214941;1300;23990;-55
2022/11/05 16:13:46;;;;;;;11.20;2.80;;;21.10;71.50;;;;;;215170;1282;22476;-56
2022/11/05 16:18:53;;;;;;;8.10;2.40;;;21.10;70.80;;;;;;215064;1290;22484;-60
2022/11/05 16:23:58;;;;;;;8.20;2.60;;;21.10;70.80;;;;;;215038;1288;22539;-58
2022/11/05 16:29:22;;;;;;;11.50;2.80;;;21.10;70.60;;;;;;215003;1275;22476;-56
2022/11/05 16:34:41;;;;;;;12.50;2.60;;;21.10;70.70;;;;;;214968;1280;23590;-57
2022/11/05 16:39:49;;;;;;;4.90;1.90;;;21.10;70.70;;;;;;215117;1292;22486;-58
2022/11/05 16:44:54;;;;;;;16.20;3.10;;;21.10;70.30;;;;;;215068;1278;23994;-57
2022/11/05 16:49:59;;;;;;;15.90;2.80;;;21.10;70.50;;;;;;215059;1281;22476;-57
2022/11/05 16:55:03;;;;;;;12.80;2.50;;;21.00;70.20;;;;;;215077;1281;24250;-55
2022/11/05 17:00:15;;;;;;;9.60;2.40;;;20.90;69.10;;;;;;215479;1269;22461;-56
2022/11/05 17:05:23;;;;;;;5.70;3.10;;;20.90;69.20;;;;;;215463;1276;24588;-56
2022/11/05 17:10:27;;;;;;;8.90;2.80;;;20.90;69.30;;;;;;215540;1276;25312;-57
2022/11/05 17:15:36;;;;;;;7.00;2.50;;;20.90;69.20;;;;;;215481;1276;26515;-56
2022/11/05 17:20:48;;;;;;;7.50;2.90;;;20.90;69.20;;;;;;215508;1276;25304;-57
2022/11/05 17:25:57;;;;;;;7.80;2.80;;;20.80;69.10;;;;;;215510;1275;25320;-57
2022/11/05 17:31:04;;;;;;;;;;;20.80;69.00;;;;;;215443;1292;22445;-57
2022/11/05 17:36:12;;;;;;;8.50;2.70;;;20.80;68.80;;;;;;215464;1286;25383;-56
2022/11/05 17:41:24;;;;;;;5.50;2.70;;;20.90;68.90;;;;;;215566;1294;22586;-56
2022/11/05 17:46:29;;;;;;;4.30;2.50;;;20.80;69.40;;;;;;215400;1276;22463;-54
2022/11/05 17:51:45;;;;;;;4.70;2.50;;;20.70;68.80;;;;;;215252;1279;24391;-57
2022/11/05 17:57:07;;;;;;;6.10;3.00;;;20.70;68.70;;;;;;215385;1281;24342;-57
2022/11/05 18:02:14;;;;;;;4.50;2.40;;;20.90;68.60;;;;;;214969;1286;24285;-57
2022/11/05 18:07:19;;;;;;;4.80;2.50;;;21.20;67.80;;;;;;215222;1269;27731;-56
2022/11/05 18:12:23;;;;;;;4.90;2.20;;;21.30;67.20;;;;;;214880;1293;263932;-57
2022/11/05 18:17:27;;;;;;;5.70;2.70;;;21.40;66.80;;;;;;215104;1276;23842;-57
2022/11/05 18:22:31;;;;;;;5.00;2.40;;;21.50;66.40;;;;;;215491;1276;24182;-57
2022/11/05 18:27:43;;;;;;;6.60;2.70;;;21.60;66.10;;;;;;215187;1278;22705;-57
2022/11/05 18:32:49;;;;;;;4.90;2.70;;;21.70;65.70;;;;;;215274;1268;22529;-57
2022/11/05 18:37:55;;;;;;;6.00;2.60;;;21.80;65.90;;;;;;215320;1274;22511;-56
2022/11/05 18:43:06;;;;;;;7.40;3.00;;;21.80;65.40;;;;;;215119;1281;22474;-57
2022/11/05 18:48:26;;;;;;;4.80;2.90;;;21.90;65.20;;;;;;215402;1268;22469;-56
2022/11/05 18:54:03;;;;;;;;;;;;;;;;;;;;;
2022/11/05 18:59:27;;;;;;;5.40;3.10;;;21.90;64.80;;;;;;215255;1275;25455;-56
2022/11/05 19:04:48;;;;;;;6.00;3.30;;;22.00;64.90;;;;;;215229;1275;23551;-57
2022/11/05 19:10:24;;;;;;;6.30;3.60;;;21.90;64.80;;;;;;215363;1276;24333;-57
2022/11/05 19:15:33;;;;;;;11.90;4.10;;;21.90;64.90;;;;;;215289;1281;22454;-56
2022/11/05 19:20:50;;;;;;;5.80;3.40;;;21.90;64.90;;;;;;215432;1284;26151;-58
2022/11/05 19:26:18;;;;;;;7.30;3.50;;;21.90;64.80;;;;;;215446;1284;22486;-56
2022/11/05 19:31:33;;;;;;;5.30;3.50;;;21.90;64.50;;;;;;215358;1275;25372;-55
2022/11/05 19:36:55;;;;;;;6.90;3.50;;;21.90;64.40;;;;;;215279;1283;26619;-57
2022/11/05 19:42:05;;;;;;;6.80;3.90;;;21.90;64.40;;;;;;215446;1276;25340;-57
2022/11/05 19:47:09;;;;;;;8.80;4.50;;;22.00;64.30;;;;;;215445;1298;25367;-55
2022/11/05 19:52:17;;;;;;;7.00;3.80;;;22.00;64.10;;;;;;215256;1300;24074;-56
2022/11/05 19:57:20;;;;;;;9.10;3.90;;;22.00;64.00;;;;;;215166;1276;25498;-57
2022/11/05 20:02:31;;;;;;;15.30;4.70;;;22.10;63.70;;;;;;215391;1269;22456;-57
2022/11/05 20:07:38;;;;;;;10.80;4.80;;;22.10;63.60;;;;;;215167;1276;25377;-57
2022/11/05 20:12:47;;;;;;;16.20;4.40;;;22.20;63.60;;;;;;215436;1291;24224;-58
2022/11/05 20:17:53;;;;;;;7.60;4.20;;;22.20;63.70;;;;;;215284;1278;24378;-58
2022/11/05 20:23:00;;;;;;;12.30;4.20;;;22.20;63.60;;;;;;215214;1276;25369;-58
2022/11/05 20:28:10;;;;;;;11.30;4.90;;;22.20;63.50;;;;;;215501;1291;26590;-57
2022/11/05 20:33:30;;;;;;;11.20;5.90;;;22.20;63.70;;;;;;215390;1279;24312;-55
2022/11/05 20:38:38;;;;;;;;;;;22.30;63.80;;;;;;215285;1276;25701;-56
2022/11/05 20:43:43;;;;;;;10.80;5.60;;;22.30;64.30;;;;;;215461;1274;25517;-57
2022/11/05 20:48:47;;;;;;;9.90;5.20;;;22.20;64.40;;;;;;215250;1283;25268;-58
2022/11/05 20:53:57;;;;;;;12.80;6.00;;;22.30;64.90;;;;;;215374;1276;25332;-56
2022/11/05 20:59:01;;;;;;;22.60;5.50;;;22.20;65.30;;;;;;215373;1276;22562;-57
2022/11/05 21:04:13;;;;;;;15.70;5.60;;;22.30;65.80;;;;;;215234;1278;26527;-58
2022/11/05 21:09:21;;;;;;;18.80;6.40;;;22.20;66.20;;;;;;215151;1276;25825;-56
2022/11/05 21:14:29;;;;;;;18.10;5.60;;;22.10;66.20;;;;;;215116;1283;23845;-57
2022/11/05 21:19:34;;;;;;;12.90;4.80;;;22.10;66.50;;;;;;215211;1291;25370;-58
2022/11/05 21:24:43;;;;;;;14.10;5.60;;;22.00;66.70;;;;;;215300;1289;23011;-57
2022/11/05 21:29:50;;;;;;;11.10;5.90;;;21.90;66.20;;;;;;215154;1283;25262;-57
2022/11/05 21:35:07;;;;;;;15.90;5.30;;;21.90;66.90;;;;;;215146;1295;22456;-59
2022/11/05 21:40:19;;;;;;;15.30;5.90;;;21.80;66.90;;;;;;215058;1278;23884;-58
2022/11/05 21:45:44;;;;;;;12.30;5.40;;;21.70;66.80;;;;;;215071;1300;22458;-59
2022/11/05 22:02:28;;;;;;;9.80;5.40;;;21.50;66.80;;;;;;215292;1269;25429;-58
2022/11/05 22:07:58;;;;;;;12.40;5.60;;;21.50;67.00;;;;;;215298;1281;22582;-58
2022/11/05 22:13:32;;;;;;;21.10;7.20;;;21.40;67.20;;;;;;215179;1275;23844;-58
2022/11/05 22:18:46;;;;;;;23.20;8.40;;;21.40;71.80;;;;;;215365;1282;22453;-58
2022/11/05 22:23:55;;;;;;;13.50;5.60;;;21.40;73.00;;;;;;215108;1279;25531;-59
2022/11/05 22:29:02;;;;;;;19.30;6.00;;;21.40;72.40;;;;;;215138;1279;23900;-57
2022/11/05 22:34:15;;;;;;;12.00;5.90;;;21.30;72.50;;;;;;215348;1279;25248;-58
2022/11/05 22:39:22;;;;;;;17.10;6.30;;;21.30;72.10;;;;;;215311;1275;24269;-58
2022/11/05 22:45:11;;;;;;;16.20;5.90;;;21.30;71.70;;;;;;215317;1269;24246;-57
2022/11/05 22:50:29;;;;;;;12.00;5.20;;;21.30;72.20;;;;;;215383;1283;25212;-59
2022/11/05 22:55:55;;;;;;;15.50;6.80;;;21.30;73.40;;;;;;215074;1283;24035;-59
2022/11/05 23:01:25;;;;;;;16.40;5.70;;;21.20;73.10;;;;;;215371;1276;24172;-58
2022/11/05 23:12:38;;;;;;;13.50;5.60;;;21.30;72.80;;;;;;214374;1281;25548;-58
2022/11/05 23:28:31;;;;;;;9.70;5.80;;;21.10;72.20;;;;;;215485;1276;23846;-59
2022/11/05 23:33:37;;;;;;;11.10;6.00;;;21.10;72.10;;;;;;215529;1276;22474;-58
2022/11/05 23:38:42;;;;;;;11.20;5.50;;;21.10;72.20;;;;;;215183;1280;22458;-58
2022/11/05 23:49:09;;;;;;;15.70;6.70;;;21.10;72.00;;;;;;215462;1276;22587;-60
2022/11/05 23:54:14;;;;;;;11.20;5.80;;;21.00;71.90;;;;;;215351;1291;24030;-59
2022/11/05 23:59:28;;;;;;;10.70;5.30;;;21.00;71.90;;;;;;215275;1282;22587;-59
